createdAt,value
2023-03-18T00:02:15.547Z,3.67
2023-03-18T00:05:18.364Z,5.30
2023-03-18T00:08:21.000Z,2.63
2023-03-18T00:11:23.743Z,1.97
2023-03-18T00:14:26.611Z,1.63
2023-03-18T00:17:30.975Z,2.87
2023-03-18T00:20:39.434Z,2.50
2023-03-18T00:23:42.503Z,2.60
2023-03-18T00:26:46.364Z,3.30
2023-03-18T00:29:49.557Z,3.50
2023-03-18T00:32:54.203Z,4.63
2023-03-18T00:35:58.077Z,2.47
2023-03-18T00:39:03.290Z,4.23
2023-03-18T00:42:10.756Z,2.63
2023-03-18T00:45:13.609Z,6.00
2023-03-18T00:48:17.726Z,2.67
2023-03-18T00:51:21.661Z,3.40
2023-03-18T00:54:24.763Z,2.53
2023-03-18T00:57:27.964Z,3.60
2023-03-18T01:00:30.942Z,3.35
2023-03-18T01:03:35.204Z,3.25
2023-03-18T01:06:39.224Z,1.73
2023-03-18T01:09:41.910Z,2.63
2023-03-18T01:12:46.587Z,2.33
2023-03-18T01:15:49.321Z,3.90
2023-03-18T01:18:53.755Z,2.57
2023-03-18T01:21:56.766Z,1.20
2023-03-18T01:24:59.396Z,1.80
2023-03-18T01:28:02.514Z,1.57
2023-03-18T01:31:05.689Z,1.37
2023-03-18T01:34:23.563Z,2.13
2023-03-18T01:37:26.361Z,0.80
2023-03-18T01:40:30.530Z,4.67
2023-03-18T01:43:36.064Z,2.63
2023-03-18T01:46:41.028Z,2.47
2023-03-18T01:49:48.540Z,1.33
2023-03-18T01:52:55.319Z,1.60
2023-03-18T01:55:59.202Z,2.50
2023-03-18T01:59:01.912Z,1.43
2023-03-18T02:02:09.059Z,1.93
2023-03-18T02:05:16.382Z,1.30
2023-03-18T02:08:19.514Z,1.27
2023-03-18T02:14:27.724Z,1.17
2023-03-18T02:17:34.167Z,1.73
2023-03-18T02:20:54.852Z,1.80
2023-03-18T02:24:07.474Z,1.07
2023-03-18T02:27:20.688Z,1.88
2023-03-18T02:30:29.256Z,2.50
2023-03-18T02:33:36.555Z,2.20
2023-03-18T02:36:40.132Z,1.27
2023-03-18T02:39:43.330Z,0.98
2023-03-18T02:42:49.623Z,2.77
2023-03-18T02:46:06.604Z,2.77
2023-03-18T02:49:10.416Z,1.63
2023-03-18T02:52:13.942Z,2.00
2023-03-18T02:55:17.991Z,3.67
2023-03-18T02:58:22.621Z,2.03
2023-03-18T03:01:26.061Z,1.30
2023-03-18T03:04:29.927Z,1.10
2023-03-18T03:07:33.101Z,1.53
2023-03-18T03:10:36.718Z,1.23
2023-03-18T03:13:43.334Z,1.40
2023-03-18T03:16:46.681Z,2.67
2023-03-18T03:19:49.750Z,1.37
2023-03-18T03:22:53.288Z,1.87
2023-03-18T03:25:57.262Z,2.10
2023-03-18T03:29:01.999Z,0.80
2023-03-18T03:32:05.807Z,0.77
2023-03-18T03:35:10.390Z,0.97
2023-03-18T03:38:13.589Z,3.03
2023-03-18T03:41:17.320Z,1.93
2023-03-18T03:44:21.962Z,1.50
2023-03-18T03:47:24.833Z,2.00
2023-03-18T03:50:28.279Z,1.93
2023-03-18T03:53:31.368Z,1.00
2023-03-18T03:56:34.984Z,0.70
2023-03-18T03:59:39.489Z,1.80
2023-03-18T04:02:43.689Z,1.10
2023-03-18T04:05:46.952Z,0.60
2023-03-18T04:08:49.924Z,1.37
2023-03-18T04:11:53.604Z,1.20
2023-03-18T04:14:59.631Z,1.70
2023-03-18T04:18:07.278Z,1.03
2023-03-18T04:21:11.809Z,1.13
2023-03-18T04:24:15.034Z,1.93
2023-03-18T04:27:18.474Z,1.03
2023-03-18T04:30:25.411Z,1.73
2023-03-18T04:33:28.620Z,1.10
2023-03-18T04:36:32.179Z,1.10
2023-03-18T04:39:35.271Z,0.77
2023-03-18T04:42:39.167Z,1.10
2023-03-18T04:45:45.220Z,2.00
2023-03-18T04:48:49.401Z,1.20
2023-03-18T04:51:53.378Z,1.77
2023-03-18T04:54:56.634Z,2.07
2023-03-18T04:57:59.601Z,0.97
2023-03-18T05:01:05.002Z,1.83
2023-03-18T05:04:08.363Z,0.80
2023-03-18T05:07:15.566Z,1.63
2023-03-18T05:10:18.949Z,1.10
2023-03-18T05:13:22.006Z,0.67
2023-03-18T05:16:26.425Z,0.83
2023-03-18T05:19:29.517Z,1.40
2023-03-18T05:22:32.491Z,2.23
2023-03-18T05:25:35.623Z,1.27
2023-03-18T05:28:39.197Z,2.47
2023-03-18T05:31:43.898Z,1.23
2023-03-18T05:34:47.075Z,1.13
2023-03-18T05:37:49.928Z,2.83
2023-03-18T05:40:53.447Z,0.90
2023-03-18T05:43:56.481Z,1.57
2023-03-18T05:47:01.594Z,2.23
2023-03-18T05:50:05.279Z,2.03
2023-03-18T05:53:09.892Z,1.33
2023-03-18T05:56:14.862Z,1.57
2023-03-18T05:59:17.947Z,1.70
2023-03-18T06:02:23.176Z,2.40
2023-03-18T06:05:27.433Z,0.90
2023-03-18T06:08:30.763Z,1.07
2023-03-18T06:11:34.034Z,0.90
2023-03-18T06:14:37.718Z,1.17
2023-03-18T06:17:42.379Z,1.30
2023-03-18T06:20:46.035Z,2.60
2023-03-18T06:23:49.754Z,2.37
2023-03-18T06:26:52.903Z,1.97
2023-03-18T06:29:56.066Z,1.37
2023-03-18T06:33:00.718Z,2.07
2023-03-18T06:36:04.697Z,1.20
2023-03-18T06:39:08.538Z,0.83
2023-03-18T06:42:11.821Z,1.03
2023-03-18T06:45:17.293Z,1.13
2023-03-18T06:48:22.094Z,1.10
2023-03-18T06:51:25.509Z,2.83
2023-03-18T06:54:28.723Z,1.47
2023-03-18T06:57:32.758Z,2.30
2023-03-18T07:00:35.974Z,2.27
2023-03-18T07:03:40.759Z,2.23
2023-03-18T07:06:44.291Z,0.63
2023-03-18T07:09:48.879Z,1.97
2023-03-18T07:12:52.474Z,5.60
2023-03-18T07:15:56.692Z,2.50
2023-03-18T07:19:02.093Z,3.33
2023-03-18T07:22:05.801Z,1.88
2023-03-18T07:25:10.535Z,2.58
2023-03-18T07:28:14.280Z,2.72
2023-03-18T07:31:18.362Z,1.40
2023-03-18T07:34:23.542Z,1.98
2023-03-18T07:37:27.586Z,1.73
2023-03-18T07:40:30.815Z,2.67
2023-03-18T07:43:33.797Z,1.92
2023-03-18T07:46:37.392Z,2.95
2023-03-18T07:49:43.032Z,1.17
2023-03-18T07:52:46.937Z,1.73
2023-03-18T07:55:50.551Z,3.58
2023-03-18T07:58:54.172Z,1.77
2023-03-18T08:01:58.968Z,2.03
2023-03-18T08:05:03.820Z,2.78
2023-03-18T08:08:07.206Z,1.92
2023-03-18T08:11:10.255Z,2.20
2023-03-18T08:14:13.886Z,2.17
2023-03-18T08:17:16.625Z,3.28
2023-03-18T08:20:21.607Z,2.30
2023-03-18T08:23:25.583Z,2.50
2023-03-18T08:26:28.478Z,2.45
2023-03-18T08:29:31.408Z,1.77
2023-03-18T08:32:34.368Z,2.00
2023-03-18T08:35:41.714Z,2.60
2023-03-18T08:38:45.366Z,1.65
2023-03-18T08:41:48.808Z,1.27
2023-03-18T08:44:52.062Z,0.88
2023-03-18T08:47:55.267Z,2.17
2023-03-18T08:51:01.437Z,3.63
2023-03-18T08:54:04.300Z,3.67
2023-03-18T08:57:07.429Z,4.15
2023-03-18T09:00:11.806Z,3.08
2023-03-18T09:03:15.918Z,1.20
2023-03-18T09:06:20.998Z,1.83
2023-03-18T09:09:31.080Z,0.65
2023-03-18T09:12:41.142Z,1.20
2023-03-18T09:15:44.286Z,1.55
2023-03-18T09:18:48.775Z,2.95
2023-03-18T09:21:53.425Z,0.63
2023-03-18T09:24:56.263Z,1.00
2023-03-18T09:27:59.400Z,1.17
2023-03-18T09:31:02.412Z,0.85
2023-03-18T09:34:05.618Z,1.38
2023-03-18T09:37:10.155Z,2.45
2023-03-18T09:40:22.995Z,2.17
2023-03-18T09:43:44.825Z,3.58
2023-03-18T09:47:05.923Z,3.83
2023-03-18T09:50:21.212Z,2.65
2023-03-18T09:53:42.466Z,2.20
2023-03-18T09:56:46.665Z,1.58
2023-03-18T09:59:55.462Z,1.45
2023-03-18T10:03:06.173Z,0.90
2023-03-18T10:06:18.228Z,2.70
2023-03-18T10:09:28.630Z,1.50
2023-03-18T10:12:34.068Z,1.60
2023-03-18T10:15:42.576Z,1.77
2023-03-18T10:18:45.532Z,1.15
2023-03-18T10:21:55.921Z,2.38
2023-03-18T10:25:08.310Z,2.28
2023-03-18T10:28:33.479Z,1.33
2023-03-18T10:31:50.132Z,3.97
2023-03-18T10:35:09.376Z,1.15
2023-03-18T10:38:19.064Z,1.90
2023-03-18T10:41:27.747Z,1.48
2023-03-18T10:44:36.130Z,2.78
2023-03-18T10:47:44.655Z,1.10
2023-03-18T10:50:53.552Z,3.25
2023-03-18T10:54:02.535Z,1.35
2023-03-18T10:57:06.962Z,3.33
2023-03-18T11:00:26.519Z,1.15
2023-03-18T11:03:34.491Z,3.03
2023-03-18T11:06:43.373Z,1.30
2023-03-18T11:09:46.248Z,2.78
2023-03-18T11:12:50.626Z,1.55
2023-03-18T11:15:56.698Z,1.77
2023-03-18T11:19:00.111Z,1.58
2023-03-18T11:22:32.077Z,1.42
2023-03-18T11:25:35.351Z,1.52
2023-03-18T11:28:43.063Z,1.58
2023-03-18T11:31:51.118Z,1.42
2023-03-18T11:34:57.309Z,1.23
2023-03-18T11:38:04.367Z,1.70
2023-03-18T11:41:08.606Z,1.80
2023-03-18T11:44:19.115Z,1.45
2023-03-18T11:47:26.099Z,1.77
2023-03-18T11:50:38.540Z,1.48
2023-03-18T11:53:52.617Z,1.35
2023-03-18T11:56:58.579Z,2.03
2023-03-18T12:00:18.415Z,0.65
2023-03-18T12:03:53.708Z,1.83
2023-03-18T12:07:16.441Z,0.60
2023-03-18T12:10:26.281Z,1.33
2023-03-18T12:13:41.035Z,0.95
2023-03-18T12:16:59.157Z,2.13
2023-03-18T12:20:20.373Z,2.78
2023-03-18T12:23:41.421Z,2.38
2023-03-18T12:26:53.049Z,2.33
2023-03-18T12:30:10.065Z,2.10
2023-03-18T12:33:35.822Z,1.23
2023-03-18T12:36:55.104Z,1.17
2023-03-18T12:40:21.331Z,1.88
2023-03-18T12:43:37.854Z,2.17
2023-03-18T12:46:46.935Z,2.28
2023-03-18T12:49:57.303Z,2.80
2023-03-18T12:53:04.539Z,0.93
2023-03-18T12:56:13.579Z,1.35
2023-03-18T12:59:23.293Z,1.55
2023-03-18T13:02:41.325Z,1.35
2023-03-18T13:05:52.460Z,1.20
2023-03-18T13:09:08.599Z,2.60
2023-03-18T13:12:14.543Z,2.00
2023-03-18T13:15:26.927Z,2.38
2023-03-18T13:18:35.730Z,1.05
2023-03-18T13:21:45.584Z,2.35
2023-03-18T13:25:01.716Z,1.45
2023-03-18T13:28:18.390Z,1.95
2023-03-18T13:31:27.760Z,1.17
2023-03-18T13:34:44.764Z,2.78
2023-03-18T13:38:12.064Z,2.13
2023-03-18T13:41:38.418Z,1.60
2023-03-18T13:44:46.218Z,0.70
2023-03-18T13:47:58.035Z,1.42
2023-03-18T13:51:15.294Z,1.13
2023-03-18T13:54:21.660Z,1.95
2023-03-18T13:57:37.156Z,1.15
2023-03-18T14:00:42.013Z,0.70
2023-03-18T14:03:55.863Z,3.55
2023-03-18T14:07:14.599Z,0.77
2023-03-18T14:10:20.735Z,1.67
2023-03-18T14:13:29.623Z,1.50
2023-03-18T14:16:53.957Z,1.27
2023-03-18T14:19:57.976Z,0.60
2023-03-18T14:23:34.228Z,2.25
2023-03-18T14:26:38.742Z,0.63
2023-03-18T14:29:43.780Z,2.00
2023-03-18T14:32:58.316Z,0.88
2023-03-18T14:36:04.287Z,1.40
2023-03-18T14:39:08.970Z,1.00
2023-03-18T14:42:25.856Z,1.23
2023-03-18T14:45:33.310Z,4.05
2023-03-18T14:48:36.947Z,0.90
2023-03-18T14:51:40.394Z,1.90
2023-03-18T14:54:46.104Z,0.77
2023-03-18T14:57:51.806Z,1.13
2023-03-18T15:00:58.773Z,1.35
2023-03-18T15:04:03.487Z,1.70
2023-03-18T15:07:09.429Z,1.55
2023-03-18T15:10:17.187Z,1.65
2023-03-18T15:13:23.290Z,2.30
2023-03-18T15:16:26.462Z,1.35
2023-03-18T15:19:30.732Z,3.22
2023-03-18T15:22:34.823Z,1.73
2023-03-18T15:25:40.324Z,1.77
2023-03-18T15:28:47.664Z,2.60
2023-03-18T15:31:50.978Z,1.85
2023-03-18T15:34:56.003Z,0.98
2023-03-18T15:38:08.316Z,3.15
2023-03-18T15:41:12.770Z,1.50
2023-03-18T15:44:24.498Z,2.78
2023-03-18T15:47:29.977Z,1.35
2023-03-18T15:50:34.444Z,1.52
2023-03-18T15:53:43.762Z,1.50
2023-03-18T15:56:49.200Z,1.20
2023-03-18T15:59:54.478Z,2.33
2023-03-18T16:02:57.362Z,2.60
2023-03-18T16:06:00.280Z,1.25
2023-03-18T16:09:14.254Z,1.52
2023-03-18T16:12:20.058Z,2.97
2023-03-18T16:15:25.936Z,1.58
2023-03-18T16:18:28.723Z,5.75
2023-03-18T16:21:31.769Z,1.65
2023-03-18T16:24:34.409Z,1.77
2023-03-18T16:27:39.820Z,1.20
2023-03-18T16:30:44.064Z,2.40
2023-03-18T16:33:47.348Z,2.97
2023-03-18T16:36:53.369Z,2.22
2023-03-18T16:39:57.224Z,1.58
2023-03-18T16:43:01.116Z,1.70
2023-03-18T16:46:05.767Z,1.00
2023-03-18T16:49:15.368Z,2.47
2023-03-18T16:52:18.441Z,2.75
2023-03-18T16:55:21.548Z,1.65
2023-03-18T16:58:28.172Z,2.58
2023-03-18T17:01:33.641Z,1.75
2023-03-18T17:04:37.664Z,1.35
2023-03-18T17:07:40.483Z,1.83
2023-03-18T17:10:44.064Z,1.48
2023-03-18T17:13:47.544Z,1.80
2023-03-18T17:16:51.855Z,2.67
2023-03-18T17:19:55.280Z,1.77
2023-03-18T17:22:58.280Z,2.78
2023-03-18T17:26:04.519Z,1.10
2023-03-18T17:29:08.494Z,2.70
2023-03-18T17:32:12.758Z,3.28
2023-03-18T17:35:18.590Z,1.88
2023-03-18T17:38:22.159Z,3.22
2023-03-18T17:41:25.109Z,1.20
2023-03-18T17:44:30.302Z,7.35
2023-03-18T17:47:34.632Z,1.45
2023-03-18T17:50:37.888Z,1.05
2023-03-18T17:53:43.434Z,1.75
2023-03-18T17:56:46.989Z,2.85
2023-03-18T17:59:49.783Z,1.67
2023-03-18T18:02:58.101Z,1.45
2023-03-18T18:06:01.307Z,3.92
2023-03-18T18:09:05.837Z,3.53
2023-03-18T18:12:15.515Z,1.80
2023-03-18T18:15:22.455Z,2.92
2023-03-18T18:18:29.211Z,2.20
2023-03-18T18:21:32.280Z,2.53
2023-03-18T18:24:35.641Z,3.85
2023-03-18T18:27:38.382Z,3.97
2023-03-18T18:30:41.268Z,4.22
2023-03-18T18:33:46.743Z,2.97
2023-03-18T18:36:50.792Z,2.88
2023-03-18T18:39:53.551Z,3.95
2023-03-18T18:42:56.980Z,3.20
2023-03-18T18:46:01.164Z,1.67
2023-03-18T18:49:05.665Z,3.63
2023-03-18T18:52:13.141Z,7.38
2023-03-18T18:55:16.741Z,3.60
2023-03-18T18:58:22.083Z,3.80
2023-03-18T19:01:25.451Z,1.63
2023-03-18T19:04:30.287Z,3.10
2023-03-18T19:07:34.150Z,4.00
2023-03-18T19:10:37.004Z,2.03
2023-03-18T19:13:39.888Z,2.67
2023-03-18T19:16:43.440Z,3.25
2023-03-18T19:19:47.888Z,4.03
2023-03-18T19:22:51.079Z,1.60
2023-03-18T19:25:54.943Z,2.08
2023-03-18T19:28:59.713Z,2.65
2023-03-18T19:32:03.672Z,2.75
2023-03-18T19:35:11.091Z,2.60
2023-03-18T19:38:17.416Z,3.38
2023-03-18T19:41:20.993Z,4.35
2023-03-18T19:44:26.140Z,2.65
2023-03-18T19:47:31.782Z,2.58
2023-03-18T19:50:36.086Z,2.10
2023-03-18T19:53:39.132Z,4.60
2023-03-18T19:56:41.913Z,4.68
2023-03-18T19:59:47.775Z,3.90
2023-03-18T20:02:51.158Z,5.32
2023-03-18T20:05:55.510Z,3.55
2023-03-18T20:08:58.349Z,4.78
2023-03-18T20:12:05.757Z,5.18
2023-03-18T20:15:14.773Z,5.63
2023-03-18T20:18:20.043Z,5.68
2023-03-18T20:21:29.591Z,6.40
2023-03-18T20:24:32.572Z,5.20
2023-03-18T20:27:35.887Z,3.00
2023-03-18T20:30:40.719Z,4.40
2023-03-18T20:33:43.465Z,6.07
2023-03-18T20:36:47.637Z,4.95
2023-03-18T20:39:52.186Z,4.97
2023-03-18T20:42:55.666Z,4.70
2023-03-18T20:46:00.868Z,6.88
2023-03-18T20:49:04.577Z,6.32
2023-03-18T20:52:21.677Z,10.20
2023-03-18T20:55:26.509Z,7.47
2023-03-18T20:58:29.306Z,5.85
2023-03-18T21:01:32.264Z,6.47
2023-03-18T21:04:35.219Z,8.38
2023-03-18T21:07:39.584Z,9.63
2023-03-18T21:10:42.509Z,8.23
2023-03-18T21:13:45.380Z,6.72
2023-03-18T21:16:49.012Z,8.52
2023-03-18T21:19:53.793Z,7.20
2023-03-18T21:22:58.050Z,11.88
2023-03-18T21:26:02.052Z,7.40
2023-03-18T21:29:04.903Z,5.47
2023-03-18T21:32:11.170Z,5.28
2023-03-18T21:35:19.216Z,5.45
2023-03-18T21:38:23.999Z,4.45
2023-03-18T21:41:29.713Z,4.35
2023-03-18T21:44:32.659Z,6.15
2023-03-18T21:47:35.902Z,7.93
2023-03-18T21:50:38.974Z,5.93
2023-03-18T21:53:43.359Z,5.35
2023-03-18T21:56:46.300Z,9.02
2023-03-18T21:59:50.117Z,6.50
2023-03-18T22:02:53.253Z,5.57
2023-03-18T22:05:57.493Z,3.88
2023-03-18T22:09:02.253Z,5.28
2023-03-18T22:12:05.413Z,3.63
2023-03-18T22:15:30.514Z,4.50
2023-03-18T22:18:33.384Z,4.28
2023-03-18T22:21:36.475Z,3.83
2023-03-18T22:24:40.762Z,5.88
2023-03-18T22:27:43.549Z,5.73
2023-03-18T22:30:51.974Z,7.85
2023-03-18T22:33:55.425Z,6.45
2023-03-18T22:36:58.208Z,5.65
2023-03-18T22:40:02.521Z,8.40
2023-03-18T22:43:07.490Z,6.93
2023-03-18T22:46:11.653Z,5.28
2023-03-18T22:49:14.606Z,4.63
2023-03-18T22:52:22.224Z,5.37
2023-03-18T22:55:29.503Z,7.00
2023-03-18T22:58:32.354Z,6.13
2023-03-18T23:01:35.376Z,10.13
2023-03-18T23:04:38.242Z,6.57
2023-03-18T23:07:41.646Z,7.55
2023-03-18T23:10:47.012Z,7.63
2023-03-18T23:13:52.103Z,7.07
2023-03-18T23:16:54.970Z,5.60
2023-03-18T23:19:58.010Z,6.87
2023-03-18T23:23:00.943Z,6.57
2023-03-18T23:26:05.201Z,6.20
2023-03-18T23:29:09.090Z,8.30
2023-03-18T23:32:12.141Z,5.43
2023-03-18T23:35:14.894Z,4.70
2023-03-18T23:38:18.110Z,3.77
2023-03-18T23:41:22.511Z,6.97
2023-03-18T23:44:25.820Z,4.93
2023-03-18T23:47:29.189Z,4.73
2023-03-18T23:50:32.183Z,5.37
2023-03-18T23:53:34.914Z,3.97
2023-03-18T23:56:39.164Z,4.25
2023-03-18T23:59:42.315Z,5.25
